createdAt,value
2023-04-19T00:00:14.778Z,99.90
2023-04-19T00:02:43.282Z,99.90
2023-04-19T00:05:14.060Z,99.90
2023-04-19T00:07:43.500Z,99.90
2023-04-19T00:10:16.364Z,99.90
2023-04-19T00:12:45.762Z,99.90
2023-04-19T00:15:14.960Z,99.90
2023-04-19T00:17:44.012Z,99.90
2023-04-19T00:20:13.734Z,99.90
2023-04-19T00:22:44.847Z,99.90
2023-04-19T00:25:14.742Z,99.90
2023-04-19T00:27:43.682Z,99.90
2023-04-19T00:30:13.745Z,99.90
2023-04-19T00:32:44.184Z,99.90
2023-04-19T00:35:12.496Z,99.90
2023-04-19T00:37:40.813Z,99.90
2023-04-19T00:40:10.694Z,99.90
2023-04-19T00:42:42.160Z,99.90
2023-04-19T00:45:11.584Z,99.90
2023-04-19T00:47:40.430Z,99.90
2023-04-19T00:50:09.915Z,99.90
2023-04-19T00:52:40.437Z,99.90
2023-04-19T00:55:10.544Z,99.90
2023-04-19T00:57:39.756Z,99.90
2023-04-19T01:00:12.059Z,99.90
2023-04-19T01:02:41.859Z,99.90
2023-04-19T01:05:11.106Z,99.90
2023-04-19T01:07:43.949Z,99.90
2023-04-19T01:10:17.337Z,99.90
2023-04-19T01:12:45.744Z,99.90
2023-04-19T01:15:16.367Z,99.90
2023-04-19T01:17:47.060Z,99.90
2023-04-19T01:20:17.195Z,99.90
2023-04-19T01:22:50.550Z,99.90
2023-04-19T01:25:21.059Z,99.90
2023-04-19T01:27:51.094Z,99.90
2023-04-19T01:30:19.391Z,99.90
2023-04-19T01:32:48.655Z,99.90
2023-04-19T01:35:17.565Z,99.90
2023-04-19T01:37:48.135Z,99.90
2023-04-19T01:40:18.434Z,99.90
2023-04-19T01:42:47.084Z,99.90
2023-04-19T01:45:15.879Z,99.90
2023-04-19T01:47:44.784Z,99.90
2023-04-19T01:50:13.699Z,99.90
2023-04-19T01:52:43.980Z,99.90
2023-04-19T01:55:14.078Z,99.90
2023-04-19T01:57:42.345Z,99.90
2023-04-19T02:00:12.388Z,99.90
2023-04-19T02:02:43.925Z,99.90
2023-04-19T02:05:12.981Z,99.90
2023-04-19T02:07:41.498Z,99.90
2023-04-19T02:10:13.915Z,99.90
2023-04-19T02:12:43.961Z,99.90
2023-04-19T02:15:12.501Z,99.90
2023-04-19T02:17:41.865Z,99.90
2023-04-19T02:20:12.107Z,99.90
2023-04-19T02:22:41.868Z,99.90
2023-04-19T02:25:16.604Z,99.90
2023-04-19T02:27:46.076Z,99.90
2023-04-19T02:30:15.368Z,99.90
2023-04-19T02:32:45.112Z,99.90
2023-04-19T02:35:14.486Z,99.90
2023-04-19T02:37:43.621Z,99.90
2023-04-19T02:40:14.415Z,99.90
2023-04-19T02:42:44.367Z,99.90
2023-04-19T02:45:13.939Z,99.90
2023-04-19T02:47:43.886Z,99.90
2023-04-19T02:50:12.574Z,99.90
2023-04-19T02:52:48.817Z,99.90
2023-04-19T02:55:19.028Z,99.90
2023-04-19T02:57:50.356Z,99.90
2023-04-19T03:00:19.346Z,99.90
2023-04-19T03:03:04.069Z,99.90
2023-04-19T03:05:34.863Z,99.90
2023-04-19T03:08:05.409Z,99.90
2023-04-19T03:10:35.676Z,99.90
2023-04-19T03:13:04.190Z,99.90
2023-04-19T03:15:33.686Z,99.90
2023-04-19T03:18:02.649Z,99.90
2023-04-19T03:20:32.114Z,99.90
2023-04-19T03:23:00.563Z,99.90
2023-04-19T03:25:29.715Z,99.90
2023-04-19T03:28:11.106Z,99.90
2023-04-19T03:31:03.404Z,99.90
2023-04-19T03:33:32.822Z,99.90
2023-04-19T03:36:02.457Z,99.90
2023-04-19T03:38:31.739Z,99.90
2023-04-19T03:41:01.032Z,99.90
2023-04-19T03:43:35.670Z,99.90
2023-04-19T03:46:04.481Z,99.90
2023-04-19T03:48:33.414Z,99.90
2023-04-19T03:51:02.246Z,99.90
2023-04-19T03:53:31.665Z,99.90
2023-04-19T03:56:02.270Z,99.90
2023-04-19T03:58:31.225Z,99.90
2023-04-19T04:01:08.952Z,99.90
2023-04-19T04:03:37.692Z,99.90
2023-04-19T04:06:07.741Z,99.90
2023-04-19T04:08:36.708Z,99.90
2023-04-19T04:11:05.673Z,99.90
2023-04-19T04:13:34.368Z,99.90
2023-04-19T04:16:14.519Z,99.90
2023-04-19T04:18:43.297Z,99.90
2023-04-19T04:21:15.176Z,99.90
2023-04-19T04:23:47.630Z,99.90
2023-04-19T04:26:28.097Z,99.90
2023-04-19T04:29:16.765Z,99.90
2023-04-19T04:31:48.055Z,99.90
2023-04-19T04:34:20.674Z,99.90
2023-04-19T04:36:56.548Z,99.90
2023-04-19T04:39:26.036Z,99.90
2023-04-19T04:41:55.052Z,99.90
2023-04-19T04:44:23.696Z,99.90
2023-04-19T04:46:53.891Z,99.90
2023-04-19T04:49:27.311Z,99.90
2023-04-19T04:51:56.584Z,99.90
2023-04-19T04:54:26.823Z,99.90
2023-04-19T04:56:55.607Z,99.90
2023-04-19T04:59:24.517Z,99.90
2023-04-19T05:01:55.030Z,99.90
2023-04-19T05:04:24.054Z,99.90
2023-04-19T05:06:53.150Z,99.90
2023-04-19T05:09:26.721Z,99.90
2023-04-19T05:11:55.516Z,99.90
2023-04-19T05:14:25.102Z,99.90
2023-04-19T05:16:56.320Z,99.90
2023-04-19T05:19:24.788Z,99.90
2023-04-19T05:21:59.477Z,99.90
2023-04-19T05:24:28.558Z,99.90
2023-04-19T05:26:57.911Z,99.90
2023-04-19T05:29:26.888Z,99.90
2023-04-19T05:31:59.274Z,99.90
2023-04-19T05:34:31.569Z,99.90
2023-04-19T05:37:01.203Z,99.90
2023-04-19T05:39:30.297Z,99.90
2023-04-19T05:42:01.845Z,99.90
2023-04-19T05:44:30.744Z,99.90
2023-04-19T05:47:01.558Z,99.90
2023-04-19T05:49:50.153Z,99.90
2023-04-19T05:52:29.060Z,99.90
2023-04-19T05:55:01.436Z,99.90
2023-04-19T05:57:30.515Z,99.90
2023-04-19T06:02:44.844Z,99.90
2023-04-19T06:05:18.343Z,99.90
2023-04-19T06:07:55.060Z,99.90
2023-04-19T06:10:37.156Z,99.90
2023-04-19T06:13:09.942Z,99.90
2023-04-19T06:15:40.324Z,99.90
2023-04-19T06:18:18.910Z,99.90
2023-04-19T06:20:49.054Z,99.90
2023-04-19T06:23:18.632Z,99.90
2023-04-19T06:25:49.508Z,99.90
2023-04-19T06:28:19.478Z,99.90
2023-04-19T06:30:48.149Z,99.90
2023-04-19T06:33:18.564Z,99.90
2023-04-19T06:35:48.187Z,99.90
2023-04-19T06:38:18.527Z,99.90
2023-04-19T06:40:47.445Z,99.90
2023-04-19T06:43:16.039Z,99.90
2023-04-19T06:45:45.014Z,99.90
2023-04-19T06:48:13.663Z,99.90
2023-04-19T06:50:44.909Z,99.90
2023-04-19T06:53:16.564Z,99.90
2023-04-19T06:55:46.290Z,99.90
2023-04-19T06:58:15.979Z,99.90
2023-04-19T07:00:45.770Z,97.10
2023-04-19T07:03:14.154Z,80.00
2023-04-19T07:05:44.232Z,74.10
2023-04-19T07:08:12.583Z,85.70
2023-04-19T07:10:43.294Z,59.90
2023-04-19T07:13:13.240Z,49.00
2023-04-19T07:15:42.005Z,36.50
2023-04-19T07:18:11.623Z,59.90
2023-04-19T07:20:39.774Z,65.60
2023-04-19T07:23:09.897Z,71.50
2023-04-19T07:25:38.166Z,64.70
2023-04-19T07:28:06.865Z,78.80
2023-04-19T07:30:37.546Z,50.20
2023-04-19T07:33:08.581Z,42.00
2023-04-19T07:35:40.049Z,28.00
2023-04-19T07:38:09.972Z,19.60
2023-04-19T07:40:38.856Z,24.90
2023-04-19T07:43:08.749Z,15.40
2023-04-19T07:45:36.991Z,8.60
2023-04-19T07:48:06.224Z,5.30
2023-04-19T07:50:35.393Z,1.00
2023-04-19T07:53:04.086Z,1.00
2023-04-19T07:55:34.229Z,1.00
2023-04-19T07:58:06.891Z,1.00
2023-04-19T08:00:38.124Z,1.00
2023-04-19T08:03:07.246Z,1.00
2023-04-19T08:05:37.319Z,1.00
2023-04-19T08:08:07.217Z,1.00
2023-04-19T08:10:37.257Z,1.00
2023-04-19T08:13:06.914Z,1.00
2023-04-19T08:18:08.204Z,1.00
2023-04-19T08:20:37.410Z,1.00
2023-04-19T08:23:20.538Z,1.00
2023-04-19T08:25:53.143Z,1.00
2023-04-19T08:28:21.838Z,1.00
2023-04-19T08:30:52.714Z,1.00
2023-04-19T08:33:21.576Z,1.00
2023-04-19T08:35:50.010Z,1.00
2023-04-19T08:38:18.300Z,1.00
2023-04-19T08:40:50.769Z,1.00
2023-04-19T08:43:22.070Z,1.00
2023-04-19T08:45:52.391Z,99.90
2023-04-19T08:48:21.500Z,99.90
2023-04-19T08:51:04.308Z,99.90
2023-04-19T08:53:36.468Z,99.90
2023-04-19T08:56:12.921Z,99.90
2023-04-19T09:01:34.681Z,99.90
2023-04-19T09:04:31.817Z,99.90
2023-04-19T09:06:57.143Z,93.30
2023-04-19T09:12:00.264Z,1.00
2023-04-19T09:14:31.507Z,1.00
2023-04-19T09:17:18.084Z,1.00
2023-04-19T09:19:50.482Z,1.00
2023-04-19T09:22:19.931Z,44.60
2023-04-19T09:27:30.139Z,1.00
2023-04-19T09:30:01.904Z,1.00
2023-04-19T09:32:33.424Z,1.00
2023-04-19T09:35:04.020Z,1.00
2023-04-19T09:40:25.696Z,99.90
2023-04-19T09:45:30.886Z,99.90
2023-04-19T09:48:05.152Z,99.90
2023-04-19T09:50:53.644Z,99.90
2023-04-19T09:53:28.340Z,99.90
2023-04-19T09:56:02.301Z,99.90
2023-04-19T09:58:48.957Z,99.90
2023-04-19T10:01:24.009Z,55.40
2023-04-19T10:03:53.463Z,77.70
2023-04-19T10:08:56.004Z,99.90
2023-04-19T10:11:26.817Z,99.90
2023-04-19T10:13:58.594Z,80.10
2023-04-19T10:16:29.024Z,1.00
2023-04-19T10:18:58.691Z,1.00
2023-04-19T10:21:29.322Z,99.90
2023-04-19T10:23:58.640Z,1.00
2023-04-19T10:26:27.159Z,48.80
2023-04-19T10:28:57.699Z,99.90
2023-04-19T10:31:28.411Z,1.00
2023-04-19T10:33:57.717Z,99.90
2023-04-19T10:36:29.452Z,99.90
2023-04-19T10:38:58.723Z,99.90
2023-04-19T10:41:59.489Z,99.90
2023-04-19T10:44:28.723Z,99.90
2023-04-19T10:47:01.495Z,99.90
2023-04-19T10:49:31.600Z,99.90
2023-04-19T10:52:00.937Z,99.90
2023-04-19T10:54:31.671Z,99.90
2023-04-19T10:57:04.800Z,99.90
2023-04-19T10:59:34.416Z,99.90
2023-04-19T11:02:34.048Z,99.90
2023-04-19T11:05:03.857Z,99.90
2023-04-19T11:07:40.784Z,99.90
2023-04-19T11:10:11.630Z,99.90
2023-04-19T11:12:45.098Z,99.90
2023-04-19T11:15:13.534Z,99.90
2023-04-19T11:17:43.881Z,99.90
2023-04-19T11:20:14.597Z,99.90
2023-04-19T11:22:45.199Z,99.90
2023-04-19T11:25:16.712Z,99.90
2023-04-19T11:27:46.436Z,99.90
2023-04-19T11:30:17.367Z,99.90
2023-04-19T11:32:53.811Z,99.90
2023-04-19T11:35:23.568Z,99.90
2023-04-19T11:37:53.076Z,99.90
2023-04-19T11:40:23.364Z,99.90
2023-04-19T11:42:57.506Z,99.90
2023-04-19T11:45:32.190Z,99.90
2023-04-19T11:48:04.222Z,99.90
2023-04-19T11:50:38.172Z,99.90
2023-04-19T11:53:15.002Z,99.90
2023-04-19T11:55:48.002Z,99.90
2023-04-19T11:58:32.741Z,99.90
2023-04-19T12:01:08.529Z,99.90
2023-04-19T12:03:44.001Z,99.90
2023-04-19T12:06:14.462Z,99.90
2023-04-19T12:08:46.017Z,99.90
2023-04-19T12:11:15.153Z,99.90
2023-04-19T12:13:44.417Z,99.90
2023-04-19T12:16:13.761Z,99.90
2023-04-19T12:18:48.954Z,99.90
2023-04-19T12:21:28.065Z,99.90
2023-04-19T12:23:58.387Z,99.90
2023-04-19T12:26:29.813Z,99.90
2023-04-19T12:28:59.478Z,99.90
2023-04-19T12:31:28.251Z,99.90
2023-04-19T12:33:57.991Z,99.90
2023-04-19T12:36:26.432Z,99.90
2023-04-19T12:38:55.220Z,99.90
2023-04-19T12:41:23.647Z,99.90
2023-04-19T12:43:52.119Z,99.90
2023-04-19T12:46:21.549Z,99.90
2023-04-19T12:48:51.786Z,99.90
2023-04-19T12:51:22.374Z,99.90
2023-04-19T12:53:51.874Z,99.90
2023-04-19T12:56:20.289Z,99.90
2023-04-19T12:58:49.512Z,99.90
2023-04-19T13:01:17.889Z,99.90
2023-04-19T13:03:48.345Z,99.90
2023-04-19T13:06:17.295Z,99.90
2023-04-19T13:08:48.098Z,99.90
2023-04-19T13:11:22.987Z,99.90
2023-04-19T13:13:53.674Z,99.90
2023-04-19T13:16:22.727Z,99.90
2023-04-19T13:18:52.497Z,99.90
2023-04-19T13:21:21.179Z,99.90
2023-04-19T13:23:51.301Z,99.90
2023-04-19T13:26:20.994Z,99.90
2023-04-19T13:28:49.417Z,99.90
2023-04-19T13:31:17.943Z,99.90
2023-04-19T13:33:47.937Z,99.90
2023-04-19T13:36:16.320Z,99.90
2023-04-19T13:38:45.941Z,99.90
2023-04-19T13:41:16.234Z,99.90
2023-04-19T13:43:44.831Z,99.90
2023-04-19T13:46:14.204Z,1.00
2023-04-19T13:48:43.076Z,71.50
2023-04-19T13:51:12.662Z,60.50
2023-04-19T13:53:41.057Z,99.90
2023-04-19T13:56:10.203Z,99.90
2023-04-19T13:58:41.522Z,99.90
2023-04-19T14:01:10.362Z,99.90
2023-04-19T14:03:39.102Z,99.90
2023-04-19T14:06:07.991Z,99.90
2023-04-19T14:08:36.394Z,99.90
2023-04-19T14:11:05.276Z,99.90
2023-04-19T14:13:33.658Z,99.90
2023-04-19T14:16:04.737Z,99.90
2023-04-19T14:18:32.922Z,99.90
2023-04-19T14:21:02.887Z,99.90
2023-04-19T14:23:31.214Z,99.90
2023-04-19T14:25:59.766Z,99.90
2023-04-19T14:28:28.333Z,99.90
2023-04-19T14:30:58.261Z,99.90
2023-04-19T14:33:28.258Z,99.90
2023-04-19T14:35:57.467Z,99.90
2023-04-19T14:38:26.056Z,99.90
2023-04-19T14:40:54.598Z,99.90
2023-04-19T14:43:23.429Z,99.90
2023-04-19T14:45:53.599Z,99.90
2023-04-19T14:48:22.461Z,99.90
2023-04-19T14:50:52.965Z,99.90
2023-04-19T14:53:23.023Z,99.90
2023-04-19T14:55:51.389Z,99.90
2023-04-19T14:58:19.496Z,99.90
2023-04-19T15:00:47.935Z,99.90
2023-04-19T15:03:16.994Z,99.90
2023-04-19T15:05:45.914Z,99.90
2023-04-19T15:08:29.757Z,99.90
2023-04-19T15:10:59.532Z,99.90
2023-04-19T15:13:30.165Z,99.90
2023-04-19T15:16:01.199Z,99.90
2023-04-19T15:18:31.678Z,99.90
2023-04-19T15:21:02.706Z,99.90
2023-04-19T15:23:32.389Z,99.90
2023-04-19T15:26:01.229Z,99.90
2023-04-19T15:28:29.902Z,99.90
2023-04-19T15:31:01.505Z,99.90
2023-04-19T15:33:30.668Z,99.90
2023-04-19T15:36:00.502Z,99.90
2023-04-19T15:38:32.616Z,99.90
2023-04-19T15:41:02.976Z,99.90
2023-04-19T15:43:31.493Z,99.90
2023-04-19T15:46:00.339Z,99.90
2023-04-19T15:48:29.852Z,99.90
2023-04-19T15:50:58.257Z,99.90
2023-04-19T15:53:29.584Z,99.90
2023-04-19T15:56:02.029Z,99.90
2023-04-19T15:58:32.261Z,99.90
2023-04-19T16:01:00.602Z,99.90
2023-04-19T16:03:29.442Z,99.90
2023-04-19T16:05:58.446Z,99.90
2023-04-19T16:08:27.040Z,99.90
2023-04-19T16:10:56.064Z,99.90
2023-04-19T16:13:25.103Z,99.90
2023-04-19T16:15:55.137Z,99.90
2023-04-19T16:18:24.919Z,99.90
2023-04-19T16:20:55.282Z,99.90
2023-04-19T16:23:25.457Z,99.90
2023-04-19T16:25:56.222Z,99.90
2023-04-19T16:28:25.295Z,99.90
2023-04-19T16:30:56.508Z,99.90
2023-04-19T16:33:25.241Z,99.90
2023-04-19T16:35:54.043Z,99.90
2023-04-19T16:38:22.708Z,99.90
2023-04-19T16:40:51.544Z,99.90
2023-04-19T16:43:21.008Z,99.90
2023-04-19T16:45:51.267Z,99.90
2023-04-19T16:48:25.941Z,99.90
2023-04-19T16:50:57.167Z,99.90
2023-04-19T16:53:26.124Z,99.90
2023-04-19T16:55:56.628Z,99.90
2023-04-19T16:58:25.950Z,99.90
2023-04-19T17:00:55.398Z,99.90
2023-04-19T17:03:25.419Z,99.90
2023-04-19T17:05:54.313Z,99.90
2023-04-19T17:08:25.255Z,99.90
2023-04-19T17:10:54.965Z,99.90
2023-04-19T17:13:23.813Z,99.90
2023-04-19T17:15:52.532Z,99.90
2023-04-19T17:18:21.233Z,99.90
2023-04-19T17:20:52.271Z,99.90
2023-04-19T17:23:23.564Z,99.90
2023-04-19T17:25:51.858Z,99.90
2023-04-19T17:28:20.046Z,99.90
2023-04-19T17:30:49.213Z,99.90
2023-04-19T17:33:18.154Z,99.90
2023-04-19T17:35:47.078Z,99.90
2023-04-19T17:38:17.351Z,99.90
2023-04-19T17:40:46.503Z,99.90
2023-04-19T17:43:15.589Z,99.90
2023-04-19T17:45:49.146Z,99.90
2023-04-19T17:48:19.142Z,99.90
2023-04-19T17:50:48.575Z,99.90
2023-04-19T17:53:18.794Z,99.90
2023-04-19T17:55:47.542Z,99.90
2023-04-19T17:58:16.162Z,99.90
2023-04-19T18:00:44.945Z,99.90
2023-04-19T18:03:14.217Z,99.90
2023-04-19T18:05:43.431Z,99.90
2023-04-19T18:08:13.651Z,99.90
2023-04-19T18:10:43.514Z,99.90
2023-04-19T18:13:12.223Z,99.90
2023-04-19T18:15:40.744Z,99.90
2023-04-19T18:18:12.227Z,99.90
2023-04-19T18:20:41.020Z,99.90
2023-04-19T18:23:09.460Z,99.90
2023-04-19T18:25:39.583Z,99.90
2023-04-19T18:28:10.057Z,99.90
2023-04-19T18:30:38.589Z,99.90
2023-04-19T18:33:07.423Z,99.90
2023-04-19T18:35:36.755Z,99.90
2023-04-19T18:38:06.759Z,99.90
2023-04-19T18:40:35.444Z,99.90
2023-04-19T18:43:06.094Z,99.90
2023-04-19T18:45:36.036Z,99.90
2023-04-19T18:48:05.593Z,99.90
2023-04-19T18:50:37.528Z,99.90
2023-04-19T18:53:06.619Z,99.90
2023-04-19T18:55:35.771Z,99.90
2023-04-19T18:58:04.476Z,99.90
2023-04-19T19:00:33.363Z,99.90
2023-04-19T19:03:04.238Z,99.90
2023-04-19T19:05:33.839Z,99.90
2023-04-19T19:08:02.625Z,99.90
2023-04-19T19:10:57.206Z,99.90
2023-04-19T19:13:20.866Z,99.90
2023-04-19T19:15:49.760Z,99.90
2023-04-19T19:18:19.962Z,99.90
2023-04-19T19:20:50.199Z,99.90
2023-04-19T19:23:20.426Z,99.90
2023-04-19T19:25:54.605Z,99.90
2023-04-19T19:28:23.394Z,99.90
2023-04-19T19:30:52.376Z,99.90
2023-04-19T19:33:28.302Z,99.90
2023-04-19T19:35:57.664Z,99.90
2023-04-19T19:38:26.881Z,99.90
2023-04-19T19:41:34.783Z,99.90
2023-04-19T19:43:47.428Z,99.90
2023-04-19T19:46:16.581Z,99.90
2023-04-19T19:48:52.749Z,1.00
2023-04-19T19:51:52.003Z,1.00
2023-04-19T19:54:12.118Z,1.00
2023-04-19T19:57:00.554Z,1.00
2023-04-19T19:59:32.127Z,1.00
2023-04-19T20:02:03.693Z,99.90
2023-04-19T20:04:35.029Z,1.00
2023-04-19T20:09:36.375Z,99.90
2023-04-19T20:12:05.869Z,1.00
2023-04-19T20:14:37.707Z,1.00
2023-04-19T20:17:07.207Z,1.00
2023-04-19T20:19:39.794Z,99.90
2023-04-19T20:22:09.705Z,1.00
2023-04-19T20:24:40.475Z,99.90
2023-04-19T20:27:09.915Z,1.00
2023-04-19T20:29:38.866Z,1.00
2023-04-19T20:32:09.045Z,1.00
2023-04-19T20:34:39.637Z,1.00
2023-04-19T20:37:08.330Z,1.00
2023-04-19T20:39:37.047Z,1.00
2023-04-19T20:42:07.243Z,1.00
2023-04-19T20:44:36.556Z,1.00
2023-04-19T20:47:05.004Z,94.20
2023-04-19T20:49:33.611Z,1.00
2023-04-19T20:52:03.959Z,1.00
2023-04-19T20:54:33.584Z,1.00
2023-04-19T20:57:05.789Z,1.00
2023-04-19T20:59:34.476Z,99.90
2023-04-19T21:02:04.649Z,1.00
2023-04-19T21:04:35.536Z,99.90
2023-04-19T21:07:05.985Z,1.00
2023-04-19T21:09:34.318Z,1.00
2023-04-19T21:12:03.430Z,99.90
2023-04-19T21:14:33.919Z,1.00
2023-04-19T21:17:03.993Z,99.90
2023-04-19T21:19:32.816Z,1.00
2023-04-19T21:22:01.856Z,99.90
2023-04-19T21:24:31.620Z,1.00
2023-04-19T21:27:00.179Z,99.90
2023-04-19T21:29:28.937Z,1.00
2023-04-19T21:31:58.037Z,99.90
2023-04-19T21:34:26.573Z,8.50
2023-04-19T21:36:55.360Z,1.00
2023-04-19T21:39:23.866Z,99.90
2023-04-19T21:41:53.597Z,1.00
2023-04-19T21:44:22.874Z,1.00
2023-04-19T21:46:52.067Z,72.20
2023-04-19T21:49:20.356Z,1.00
2023-04-19T21:51:49.306Z,99.90
2023-04-19T21:54:30.506Z,1.00
2023-04-19T21:57:04.382Z,1.00
2023-04-19T21:59:36.462Z,99.90
2023-04-19T22:02:05.736Z,1.00
2023-04-19T22:04:35.021Z,24.60
2023-04-19T22:07:03.340Z,99.90
2023-04-19T22:09:32.942Z,99.90
2023-04-19T22:12:01.895Z,99.90
2023-04-19T22:14:31.750Z,99.90
2023-04-19T22:17:02.973Z,99.90
2023-04-19T22:19:31.735Z,1.00
2023-04-19T22:22:00.406Z,99.90
2023-04-19T22:24:28.796Z,1.00
2023-04-19T22:26:57.534Z,1.00
2023-04-19T22:29:26.880Z,1.00
2023-04-19T22:31:57.918Z,1.00
2023-04-19T22:34:26.255Z,1.00
2023-04-19T22:36:55.545Z,1.00
2023-04-19T22:39:24.680Z,1.00
2023-04-19T22:41:53.434Z,1.00
2023-04-19T22:44:22.334Z,1.00
2023-04-19T22:46:51.734Z,1.00
2023-04-19T22:49:25.165Z,1.00
2023-04-19T22:51:55.421Z,1.00
2023-04-19T22:54:24.074Z,1.00
2023-04-19T22:56:52.701Z,1.00
2023-04-19T22:59:21.200Z,1.00
2023-04-19T23:01:49.856Z,1.00
2023-04-19T23:04:19.669Z,1.00
2023-04-19T23:06:49.625Z,1.00
2023-04-19T23:09:19.669Z,1.00
2023-04-19T23:11:49.281Z,1.00
2023-04-19T23:14:18.473Z,1.00
2023-04-19T23:16:47.148Z,1.00
2023-04-19T23:19:16.870Z,1.00
2023-04-19T23:21:45.745Z,1.00
2023-04-19T23:24:17.188Z,1.00
2023-04-19T23:26:45.442Z,1.00
2023-04-19T23:29:13.566Z,1.00
2023-04-19T23:31:42.232Z,16.00
2023-04-19T23:34:11.015Z,28.60
2023-04-19T23:36:40.563Z,20.10
2023-04-19T23:39:09.241Z,31.30
2023-04-19T23:41:39.681Z,25.30
2023-04-19T23:44:08.420Z,16.00
2023-04-19T23:46:37.090Z,7.90
2023-04-19T23:49:05.755Z,7.70
2023-04-19T23:51:34.422Z,1.00
2023-04-19T23:54:04.145Z,5.60
2023-04-19T23:56:32.708Z,11.30
2023-04-19T23:59:02.597Z,17.60
